createdAt,value
2022-10-12T00:01:46.735Z,10.11
2022-10-12T00:04:14.465Z,10.09
2022-10-12T00:06:42.130Z,10.04
2022-10-12T00:09:11.150Z,10.02
2022-10-12T00:11:40.654Z,10.03
2022-10-12T00:14:08.895Z,10.03
2022-10-12T00:16:36.575Z,10.01
2022-10-12T00:19:04.242Z,10.01
2022-10-12T00:21:32.240Z,9.98
2022-10-12T00:24:01.462Z,9.99
2022-10-12T00:26:31.029Z,10.00
2022-10-12T00:29:00.589Z,9.92
2022-10-12T00:31:29.370Z,9.97
2022-10-12T00:34:00.091Z,10.02
2022-10-12T00:36:29.954Z,10.01
2022-10-12T00:38:57.717Z,10.01
2022-10-12T00:41:27.843Z,9.92
2022-10-12T00:43:58.624Z,9.92
2022-10-12T00:46:31.810Z,9.89
2022-10-12T00:49:05.797Z,9.88
2022-10-12T00:51:34.334Z,9.82
2022-10-12T00:54:06.783Z,9.80
2022-10-12T00:56:39.729Z,9.83
2022-10-12T00:59:13.365Z,9.76
2022-10-12T01:01:42.401Z,9.78
2022-10-12T01:04:10.333Z,9.73
2022-10-12T01:06:38.101Z,9.78
2022-10-12T01:09:06.020Z,9.79
2022-10-12T01:11:33.742Z,9.77
2022-10-12T01:14:01.548Z,9.66
2022-10-12T01:16:38.638Z,9.66
2022-10-12T01:19:20.765Z,9.64
2022-10-12T01:21:55.448Z,9.64
2022-10-12T01:24:35.771Z,9.63
2022-10-12T01:27:28.545Z,9.58
2022-10-12T01:30:14.653Z,9.58
2022-10-12T01:33:05.119Z,9.55
2022-10-12T01:35:39.362Z,9.50
2022-10-12T01:38:16.889Z,9.46
2022-10-12T01:40:51.038Z,9.46
2022-10-12T01:43:18.905Z,9.40
2022-10-12T01:45:48.118Z,9.35
2022-10-12T01:48:16.675Z,9.34
2022-10-12T01:50:50.272Z,9.38
2022-10-12T01:53:29.699Z,9.38
2022-10-12T01:56:06.702Z,9.32
2022-10-12T01:58:48.460Z,9.32
2022-10-12T02:01:22.648Z,9.28
2022-10-12T02:03:58.671Z,9.25
2022-10-12T02:06:31.401Z,9.26
2022-10-12T02:09:04.679Z,9.25
2022-10-12T02:11:36.659Z,9.25
2022-10-12T02:14:10.738Z,9.21
2022-10-12T02:16:44.409Z,9.23
2022-10-12T02:19:17.135Z,9.26
2022-10-12T02:21:48.246Z,9.32
2022-10-12T02:24:18.184Z,9.31
2022-10-12T02:26:48.965Z,9.29
2022-10-12T02:29:22.441Z,9.24
2022-10-12T02:31:56.943Z,9.23
2022-10-12T02:34:30.296Z,9.22
2022-10-12T02:37:05.325Z,9.16
2022-10-12T02:39:38.741Z,9.09
2022-10-12T02:42:11.371Z,9.03
2022-10-12T02:44:42.718Z,9.06
2022-10-12T02:47:14.014Z,9.08
2022-10-12T02:49:44.887Z,9.08
2022-10-12T02:52:12.979Z,9.08
2022-10-12T02:54:41.383Z,9.09
2022-10-12T02:57:09.073Z,9.12
2022-10-12T02:59:36.801Z,9.17
2022-10-12T03:02:04.448Z,9.11
2022-10-12T03:04:33.487Z,9.07
2022-10-12T03:07:01.184Z,9.04
2022-10-12T03:09:28.849Z,8.95
2022-10-12T03:11:56.626Z,8.92
2022-10-12T03:14:26.740Z,8.78
2022-10-12T03:16:54.695Z,8.77
2022-10-12T03:19:22.388Z,8.73
2022-10-12T03:21:51.889Z,8.72
2022-10-12T03:24:19.542Z,8.69
2022-10-12T03:26:47.186Z,8.71
2022-10-12T03:29:14.847Z,8.70
2022-10-12T03:31:42.508Z,8.67
2022-10-12T03:34:10.154Z,8.64
2022-10-12T03:36:37.847Z,8.60
2022-10-12T03:39:06.916Z,8.58
2022-10-12T03:41:34.576Z,8.60
2022-10-12T03:44:02.431Z,8.58
2022-10-12T03:46:30.070Z,8.59
2022-10-12T03:48:57.763Z,8.58
2022-10-12T03:51:25.829Z,8.50
2022-10-12T03:53:53.477Z,8.45
2022-10-12T03:56:22.474Z,8.41
2022-10-12T03:58:50.156Z,8.43
2022-10-12T04:01:17.863Z,8.47
2022-10-12T04:03:45.653Z,8.48
2022-10-12T04:06:13.327Z,8.49
2022-10-12T04:08:40.968Z,8.56
2022-10-12T04:11:08.627Z,8.58
2022-10-12T04:13:37.653Z,8.56
2022-10-12T04:16:07.426Z,8.54
2022-10-12T04:18:35.168Z,8.56
2022-10-12T04:21:03.262Z,8.57
2022-10-12T04:23:30.931Z,8.60
2022-10-12T04:25:58.553Z,8.61
2022-10-12T04:28:26.317Z,8.65
2022-10-12T04:30:55.337Z,8.69
2022-10-12T04:33:23.009Z,8.62
2022-10-12T04:35:50.699Z,8.65
2022-10-12T04:38:18.576Z,8.64
2022-10-12T04:40:48.590Z,8.62
2022-10-12T04:43:17.339Z,8.54
2022-10-12T04:45:45.202Z,8.49
2022-10-12T04:48:14.231Z,8.46
2022-10-12T04:50:41.961Z,8.49
2022-10-12T04:53:09.649Z,8.46
2022-10-12T04:55:38.472Z,8.43
2022-10-12T04:58:06.296Z,8.35
2022-10-12T05:00:34.130Z,8.37
2022-10-12T05:03:01.872Z,8.31
2022-10-12T05:05:31.025Z,8.23
2022-10-12T05:07:58.709Z,8.22
2022-10-12T05:10:26.560Z,8.23
2022-10-12T05:12:54.403Z,8.13
2022-10-12T05:15:22.161Z,8.12
2022-10-12T05:17:50.071Z,8.16
2022-10-12T05:20:17.932Z,8.15
2022-10-12T05:22:47.059Z,8.17
2022-10-12T05:25:15.063Z,8.20
2022-10-12T05:27:43.146Z,8.22
2022-10-12T05:30:11.856Z,8.15
2022-10-12T05:32:40.201Z,8.12
2022-10-12T05:35:08.740Z,8.05
2022-10-12T05:37:36.762Z,8.09
2022-10-12T05:40:07.471Z,8.12
2022-10-12T05:42:35.798Z,8.06
2022-10-12T05:45:04.815Z,8.03
2022-10-12T05:47:32.646Z,7.93
2022-10-12T05:50:00.346Z,7.86
2022-10-12T05:52:28.218Z,7.87
2022-10-12T05:54:58.207Z,7.89
2022-10-12T05:57:27.239Z,7.92
2022-10-12T05:59:54.886Z,7.90
2022-10-12T06:02:24.917Z,7.79
2022-10-12T06:04:53.430Z,7.79
2022-10-12T06:07:21.199Z,7.81
2022-10-12T06:09:49.066Z,7.83
2022-10-12T06:12:17.082Z,7.83
2022-10-12T06:14:46.170Z,7.95
2022-10-12T06:17:13.878Z,7.96
2022-10-12T06:19:41.566Z,7.99
2022-10-12T06:22:09.325Z,8.08
2022-10-12T06:24:37.430Z,8.09
2022-10-12T06:27:05.202Z,8.13
2022-10-12T06:29:33.140Z,8.11
2022-10-12T06:32:02.391Z,8.09
2022-10-12T06:34:30.342Z,8.10
2022-10-12T06:37:01.672Z,8.09
2022-10-12T06:39:29.821Z,8.12
2022-10-12T06:41:57.535Z,8.07
2022-10-12T06:44:25.286Z,8.13
2022-10-12T06:46:53.340Z,8.22
2022-10-12T06:49:22.381Z,8.25
2022-10-12T06:51:50.490Z,8.32
2022-10-12T06:54:18.212Z,8.38
2022-10-12T06:56:45.937Z,8.38
2022-10-12T06:59:13.964Z,8.52
2022-10-12T07:01:41.807Z,8.59
2022-10-12T07:04:09.638Z,8.58
2022-10-12T07:06:38.690Z,8.61
2022-10-12T07:09:06.386Z,8.64
2022-10-12T07:11:34.317Z,8.74
2022-10-12T07:14:02.049Z,8.82
2022-10-12T07:16:29.927Z,8.82
2022-10-12T07:18:57.826Z,8.89
2022-10-12T07:21:25.590Z,8.90
2022-10-12T07:23:54.688Z,9.00
2022-10-12T07:26:22.530Z,9.05
2022-10-12T07:28:50.914Z,9.15
2022-10-12T07:31:18.763Z,9.24
2022-10-12T07:33:46.480Z,9.23
2022-10-12T07:36:19.084Z,9.26
2022-10-12T07:38:49.114Z,9.29
2022-10-12T07:41:18.670Z,9.22
2022-10-12T07:43:46.590Z,9.27
2022-10-12T07:46:14.452Z,9.19
2022-10-12T07:49:01.129Z,9.26
2022-10-12T07:51:28.912Z,9.34
2022-10-12T07:53:56.627Z,9.36
2022-10-12T07:56:25.619Z,9.36
2022-10-12T07:58:55.332Z,9.52
2022-10-12T08:01:25.160Z,9.64
2022-10-12T08:03:58.750Z,9.78
2022-10-12T08:06:31.220Z,9.91
2022-10-12T08:09:00.032Z,9.99
2022-10-12T08:11:29.132Z,10.09
2022-10-12T08:13:56.982Z,10.11
2022-10-12T08:16:24.858Z,10.15
2022-10-12T08:18:52.584Z,10.22
2022-10-12T08:21:20.359Z,10.32
2022-10-12T08:23:48.149Z,10.36
2022-10-12T08:26:17.078Z,10.46
2022-10-12T08:28:46.314Z,10.57
2022-10-12T08:31:17.526Z,10.59
2022-10-12T08:33:45.515Z,10.66
2022-10-12T08:36:14.226Z,10.72
2022-10-12T08:38:43.407Z,10.74
2022-10-12T08:41:30.356Z,10.85
2022-10-12T08:44:13.359Z,10.88
2022-10-12T08:46:41.236Z,10.86
2022-10-12T08:49:14.567Z,10.98
2022-10-12T08:51:48.278Z,11.12
2022-10-12T08:54:19.650Z,11.17
2022-10-12T08:56:47.379Z,11.27
2022-10-12T08:59:21.058Z,11.32
2022-10-12T09:02:00.543Z,11.40
2022-10-12T09:04:41.480Z,11.41
2022-10-12T09:07:15.957Z,11.47
2022-10-12T09:10:03.675Z,11.53
2022-10-12T09:12:43.673Z,11.62
2022-10-12T09:15:16.185Z,11.70
2022-10-12T09:17:48.824Z,11.73
2022-10-12T09:20:22.188Z,11.75
2022-10-12T09:22:51.320Z,11.70
2022-10-12T09:25:23.102Z,11.76
2022-10-12T09:27:51.037Z,11.77
2022-10-12T09:30:21.902Z,11.71
2022-10-12T09:33:15.583Z,11.77
2022-10-12T09:35:45.941Z,11.73
2022-10-12T09:38:13.867Z,11.71
2022-10-12T09:40:41.670Z,11.83
2022-10-12T09:43:10.416Z,11.93
2022-10-12T09:45:39.553Z,12.02
2022-10-12T09:48:16.571Z,12.07
2022-10-12T09:50:48.765Z,12.09
2022-10-12T09:53:24.534Z,12.13
2022-10-12T09:55:59.347Z,12.15
2022-10-12T09:58:28.971Z,12.24
2022-10-12T10:01:19.083Z,12.16
2022-10-12T10:03:48.334Z,12.21
2022-10-12T10:06:16.311Z,12.26
2022-10-12T10:08:45.135Z,12.35
2022-10-12T10:11:17.554Z,12.40
2022-10-12T10:13:50.806Z,12.38
2022-10-12T10:16:22.124Z,12.46
2022-10-12T10:18:56.290Z,12.46
2022-10-12T10:21:31.145Z,12.50
2022-10-12T10:24:01.382Z,12.54
2022-10-12T10:26:32.106Z,12.58
2022-10-12T10:29:18.205Z,12.59
2022-10-12T10:31:48.082Z,12.64
2022-10-12T10:34:24.886Z,12.69
2022-10-12T10:36:55.809Z,12.72
2022-10-12T10:39:25.918Z,12.73
2022-10-12T10:41:55.857Z,12.73
2022-10-12T10:44:30.531Z,12.75
2022-10-12T10:47:03.183Z,12.79
2022-10-12T10:49:39.227Z,12.81
2022-10-12T10:52:09.164Z,12.81
2022-10-12T10:54:38.695Z,12.83
2022-10-12T10:57:14.999Z,12.87
2022-10-12T10:59:48.684Z,12.86
2022-10-12T11:02:24.589Z,12.89
2022-10-12T11:04:57.749Z,12.94
2022-10-12T11:07:31.967Z,12.97
2022-10-12T11:10:03.896Z,12.98
2022-10-12T11:12:36.646Z,12.98
2022-10-12T11:15:09.806Z,13.02
2022-10-12T11:17:46.229Z,13.05
2022-10-12T11:20:31.859Z,13.05
2022-10-12T11:23:05.595Z,13.01
2022-10-12T11:25:45.643Z,13.09
2022-10-12T11:28:17.448Z,13.13
2022-10-12T11:30:51.378Z,13.13
2022-10-12T11:33:24.575Z,13.17
2022-10-12T11:35:53.998Z,13.24
2022-10-12T11:38:26.112Z,13.26
2022-10-12T11:41:13.962Z,13.31
2022-10-12T11:43:49.736Z,13.39
2022-10-12T11:46:22.404Z,13.49
2022-10-12T11:48:55.382Z,13.63
2022-10-12T11:51:23.179Z,13.89
2022-10-12T11:54:00.457Z,14.12
2022-10-12T11:56:34.076Z,14.26
2022-10-12T11:59:06.412Z,14.53
2022-10-12T12:01:48.323Z,14.70
2022-10-12T12:07:42.142Z,14.99
2022-10-12T12:10:43.440Z,15.13
2022-10-12T12:13:22.851Z,15.33
2022-10-12T12:16:27.473Z,15.29
2022-10-12T12:19:14.354Z,15.54
2022-10-12T12:22:16.042Z,15.71
2022-10-12T12:24:54.403Z,15.78
2022-10-12T12:27:24.508Z,15.89
2022-10-12T12:29:53.640Z,16.03
2022-10-12T12:32:22.157Z,16.02
2022-10-12T12:35:00.193Z,16.20
2022-10-12T12:37:34.955Z,16.19
2022-10-12T12:40:02.826Z,16.26
2022-10-12T12:42:32.062Z,16.45
2022-10-12T12:45:34.915Z,16.78
2022-10-12T12:50:36.028Z,16.89
2022-10-12T12:53:07.690Z,16.97
2022-10-12T12:56:00.089Z,17.01
2022-10-12T12:58:51.970Z,17.12
2022-10-12T13:01:36.779Z,17.21
2022-10-12T13:04:38.247Z,17.27
2022-10-12T13:07:47.337Z,17.19
2022-10-12T13:10:27.849Z,17.19
2022-10-12T13:13:18.295Z,16.97
2022-10-12T13:16:00.124Z,16.94
2022-10-12T13:18:52.716Z,16.76
2022-10-12T13:21:24.569Z,16.80
2022-10-12T13:24:01.823Z,16.86
2022-10-12T13:26:32.132Z,16.87
2022-10-12T13:29:02.999Z,16.82
2022-10-12T13:31:38.874Z,16.77
2022-10-12T13:34:13.303Z,16.57
2022-10-12T13:36:53.861Z,16.35
2022-10-12T13:39:23.086Z,16.22
2022-10-12T13:41:54.260Z,16.14
2022-10-12T13:44:25.870Z,16.03
2022-10-12T13:46:56.519Z,15.95
2022-10-12T13:49:26.926Z,15.87
2022-10-12T13:51:57.991Z,15.81
2022-10-12T13:54:28.173Z,15.72
2022-10-12T13:57:00.025Z,15.70
2022-10-12T13:59:31.006Z,15.63
2022-10-12T14:02:00.802Z,15.59
2022-10-12T14:04:30.687Z,15.54
2022-10-12T14:07:03.833Z,15.49
2022-10-12T14:09:40.386Z,15.44
2022-10-12T14:12:09.338Z,15.43
2022-10-12T14:14:39.814Z,15.41
2022-10-12T14:17:08.016Z,15.36
2022-10-12T14:19:45.630Z,15.37
2022-10-12T14:22:21.406Z,15.36
2022-10-12T14:24:49.342Z,15.34
2022-10-12T14:27:23.909Z,15.29
2022-10-12T14:29:56.409Z,15.26
2022-10-12T14:32:38.564Z,15.26
2022-10-12T14:35:20.306Z,15.23
2022-10-12T14:37:50.943Z,15.18
2022-10-12T14:40:40.105Z,15.15
2022-10-12T14:43:24.057Z,15.14
2022-10-12T14:45:52.418Z,15.15
2022-10-12T14:48:23.236Z,15.14
2022-10-12T14:50:51.121Z,15.14
2022-10-12T14:53:20.932Z,15.13
2022-10-12T14:55:50.901Z,15.14
2022-10-12T14:58:21.456Z,15.13
2022-10-12T15:00:49.416Z,15.11
2022-10-12T15:03:17.946Z,15.11
2022-10-12T15:05:45.870Z,15.11
2022-10-12T15:08:13.511Z,15.09
2022-10-12T15:10:42.590Z,15.08
2022-10-12T15:13:13.832Z,15.05
2022-10-12T15:15:44.803Z,15.03
2022-10-12T15:18:12.531Z,15.01
2022-10-12T15:20:43.239Z,15.01
2022-10-12T15:23:14.987Z,15.03
2022-10-12T15:25:48.661Z,15.03
2022-10-12T15:28:16.490Z,15.03
2022-10-12T15:31:11.856Z,15.03
2022-10-12T15:33:32.405Z,15.03
2022-10-12T15:36:00.139Z,15.02
2022-10-12T15:38:27.826Z,14.98
2022-10-12T15:40:58.152Z,14.99
2022-10-12T15:43:26.358Z,14.95
2022-10-12T15:45:56.446Z,14.91
2022-10-12T15:48:24.154Z,14.87
2022-10-12T15:50:51.933Z,14.85
2022-10-12T15:53:23.889Z,14.83
2022-10-12T15:55:52.081Z,14.82
2022-10-12T15:58:21.990Z,14.79
2022-10-12T16:00:50.474Z,14.75
2022-10-12T16:03:25.615Z,14.75
2022-10-12T16:05:54.625Z,14.76
2022-10-12T16:08:22.449Z,14.76
2022-10-12T16:10:50.257Z,14.76
2022-10-12T16:13:18.239Z,14.76
2022-10-12T16:15:47.204Z,14.75
2022-10-12T16:18:15.936Z,14.70
2022-10-12T16:20:46.631Z,14.69
2022-10-12T16:23:21.021Z,14.69
2022-10-12T16:25:48.689Z,14.73
2022-10-12T16:28:16.561Z,14.71
2022-10-12T16:30:44.243Z,14.70
2022-10-12T16:33:13.297Z,14.63
2022-10-12T16:35:41.323Z,14.53
2022-10-12T16:38:09.922Z,14.47
2022-10-12T16:40:39.659Z,14.39
2022-10-12T16:43:07.440Z,14.35
2022-10-12T16:45:35.510Z,14.33
2022-10-12T16:48:03.157Z,14.28
2022-10-12T16:50:32.145Z,14.27
2022-10-12T16:53:00.020Z,14.25
2022-10-12T16:55:27.782Z,14.22
2022-10-12T16:57:55.415Z,14.12
2022-10-12T17:00:23.209Z,14.11
2022-10-12T17:02:53.007Z,14.08
2022-10-12T17:05:24.334Z,14.06
2022-10-12T17:07:53.412Z,14.06
2022-10-12T17:10:21.119Z,14.03
2022-10-12T17:12:48.761Z,14.00
2022-10-12T17:15:16.462Z,13.98
2022-10-12T17:17:44.078Z,13.97
2022-10-12T17:20:12.227Z,13.96
2022-10-12T17:22:39.932Z,13.95
2022-10-12T17:25:09.954Z,13.91
2022-10-12T17:27:37.612Z,13.89
2022-10-12T17:30:08.022Z,13.85
2022-10-12T17:32:37.803Z,13.81
2022-10-12T17:35:06.291Z,13.77
2022-10-12T17:37:34.149Z,13.67
2022-10-12T17:40:01.850Z,13.64
2022-10-12T17:42:31.070Z,13.59
2022-10-12T17:44:58.750Z,13.60
2022-10-12T17:47:26.485Z,13.60
2022-10-12T17:49:54.149Z,13.63
2022-10-12T17:52:21.859Z,13.61
2022-10-12T17:54:49.510Z,13.59
2022-10-12T17:57:17.534Z,13.57
2022-10-12T17:59:46.630Z,13.56
2022-10-12T18:02:14.543Z,13.54
2022-10-12T18:04:42.228Z,13.50
2022-10-12T18:07:10.949Z,13.45
2022-10-12T18:09:38.660Z,13.44
2022-10-12T18:12:07.123Z,13.39
2022-10-12T18:14:34.880Z,13.37
2022-10-12T18:17:04.058Z,13.36
2022-10-12T18:19:32.430Z,13.36
2022-10-12T18:22:00.126Z,13.35
2022-10-12T18:24:27.734Z,13.33
2022-10-12T18:26:55.452Z,13.38
2022-10-12T18:29:23.394Z,13.40
2022-10-12T18:31:51.201Z,13.38
2022-10-12T18:34:20.296Z,13.39
2022-10-12T18:36:48.099Z,13.39
2022-10-12T18:39:16.250Z,13.37
2022-10-12T18:41:44.122Z,13.34
2022-10-12T18:44:14.841Z,13.31
2022-10-12T18:46:42.471Z,13.24
2022-10-12T18:49:12.085Z,13.19
2022-10-12T18:51:47.077Z,13.12
2022-10-12T18:54:16.963Z,13.10
2022-10-12T18:56:44.652Z,13.05
2022-10-12T18:59:17.352Z,13.00
2022-10-12T19:01:46.242Z,12.99
2022-10-12T19:04:14.371Z,12.94
2022-10-12T19:06:44.297Z,12.90
2022-10-12T19:09:14.272Z,12.88
2022-10-12T19:11:41.961Z,12.87
2022-10-12T19:14:13.988Z,12.82
2022-10-12T19:16:42.246Z,12.81
2022-10-12T19:19:18.222Z,12.76
2022-10-12T19:21:50.669Z,12.75
2022-10-12T19:24:18.866Z,12.73
2022-10-12T19:26:46.757Z,12.70
2022-10-12T19:29:15.746Z,12.70
2022-10-12T19:31:46.103Z,12.64
2022-10-12T19:34:15.640Z,12.54
2022-10-12T19:36:43.507Z,12.48
2022-10-12T19:39:18.315Z,12.50
2022-10-12T19:41:46.519Z,12.54
2022-10-12T19:44:14.931Z,12.58
2022-10-12T19:46:47.100Z,12.61
2022-10-12T19:49:15.741Z,12.59
2022-10-12T19:51:43.841Z,12.57
2022-10-12T19:54:14.462Z,12.50
2022-10-12T19:56:42.540Z,12.45
2022-10-12T19:59:10.876Z,12.36
2022-10-12T20:01:40.562Z,12.27
2022-10-12T20:04:11.824Z,12.18
2022-10-12T20:06:40.104Z,12.12
2022-10-12T20:09:08.908Z,11.96
2022-10-12T20:11:38.339Z,11.94
2022-10-12T20:14:07.913Z,11.93
2022-10-12T20:16:35.692Z,11.98
2022-10-12T20:19:03.795Z,11.98
2022-10-12T20:21:31.645Z,11.98
2022-10-12T20:23:59.337Z,12.00
2022-10-12T20:26:27.303Z,12.02
2022-10-12T20:28:56.395Z,12.02
2022-10-12T20:31:24.727Z,12.04
2022-10-12T20:33:53.680Z,12.07
2022-10-12T20:36:24.401Z,11.97
2022-10-12T20:38:53.170Z,11.91
2022-10-12T20:41:23.063Z,11.85
2022-10-12T20:43:54.419Z,11.97
2022-10-12T20:46:23.652Z,12.12
2022-10-12T20:48:55.924Z,12.18
2022-10-12T20:51:28.661Z,12.04
2022-10-12T20:53:59.057Z,11.98
2022-10-12T20:56:27.156Z,12.00
2022-10-12T20:58:55.437Z,11.97
2022-10-12T21:01:25.858Z,11.88
2022-10-12T21:03:53.696Z,11.83
2022-10-12T21:06:23.222Z,11.73
2022-10-12T21:08:51.713Z,11.77
2022-10-12T21:11:19.530Z,11.82
2022-10-12T21:13:47.411Z,11.86
2022-10-12T21:16:15.672Z,11.86
2022-10-12T21:18:44.814Z,11.87
2022-10-12T21:21:14.605Z,11.88
2022-10-12T21:23:43.114Z,11.89
2022-10-12T21:26:12.170Z,11.90
2022-10-12T21:28:40.033Z,11.88
2022-10-12T21:31:07.928Z,11.81
2022-10-12T21:33:36.079Z,11.70
2022-10-12T21:36:10.018Z,11.63
2022-10-12T21:38:37.871Z,11.56
2022-10-12T21:41:06.737Z,11.47
2022-10-12T21:43:34.672Z,11.46
2022-10-12T21:46:03.579Z,11.44
2022-10-12T21:48:32.389Z,11.46
2022-10-12T21:51:00.505Z,11.50
2022-10-12T21:53:30.301Z,11.55
2022-10-12T21:55:57.933Z,11.57
2022-10-12T21:58:25.732Z,11.60
2022-10-12T22:00:53.459Z,11.58
2022-10-12T22:03:21.169Z,11.61
2022-10-12T22:05:48.782Z,11.60
2022-10-12T22:08:16.445Z,11.61
2022-10-12T22:10:45.438Z,11.64
2022-10-12T22:13:13.150Z,11.64
2022-10-12T22:15:40.833Z,11.62
2022-10-12T22:18:08.568Z,11.61
2022-10-12T22:20:37.018Z,11.58
2022-10-12T22:23:04.925Z,11.60
2022-10-12T22:25:32.583Z,11.62
2022-10-12T22:28:01.583Z,11.60
2022-10-12T22:30:29.232Z,11.61
2022-10-12T22:32:56.895Z,11.61
2022-10-12T22:35:24.987Z,11.62
2022-10-12T22:37:52.655Z,11.62
2022-10-12T22:40:20.272Z,11.65
2022-10-12T22:42:47.888Z,11.63
2022-10-12T22:45:17.175Z,11.63
2022-10-12T22:47:45.102Z,11.64
2022-10-12T22:50:12.771Z,11.62
2022-10-12T22:52:40.414Z,11.62
2022-10-12T22:55:09.030Z,11.61
2022-10-12T22:57:36.717Z,11.63
2022-10-12T23:00:05.426Z,11.58
2022-10-12T23:02:34.407Z,11.58
2022-10-12T23:05:02.042Z,11.59
2022-10-12T23:07:29.978Z,11.59
2022-10-12T23:09:57.599Z,11.57
2022-10-12T23:12:25.295Z,11.56
2022-10-12T23:14:52.932Z,11.54
2022-10-12T23:17:20.573Z,11.52
2022-10-12T23:19:49.534Z,11.52
2022-10-12T23:22:17.494Z,11.54
2022-10-12T23:24:45.394Z,11.50
2022-10-12T23:27:13.060Z,11.48
2022-10-12T23:29:41.733Z,11.45
2022-10-12T23:32:09.383Z,11.47
2022-10-12T23:34:37.040Z,11.47
2022-10-12T23:37:06.238Z,11.45
2022-10-12T23:39:34.247Z,11.47
2022-10-12T23:42:01.921Z,11.45
2022-10-12T23:44:29.526Z,11.43
2022-10-12T23:46:57.273Z,11.40
2022-10-12T23:49:24.886Z,11.36
2022-10-12T23:51:52.486Z,11.33
2022-10-12T23:54:21.449Z,11.31
2022-10-12T23:56:49.114Z,11.31
2022-10-12T23:59:16.753Z,11.25
